Terminal Aerodrome Forecast
Issued by NWS

Home | Current Version | Previous Version | Text Only | Print | Product List | Glossary On
Versions: 1 2 3 4 5 6 7 8 9 10 11 12 13 14 15 16
039
FTUS44 KCRP 260520
TAFALI
TAF
KALI 260520Z 2606/2706 12008KT P6SM SCT015 OVC150
     FM260800 13007KT P6SM VCSH BKN015 OVC100
      TEMPO 2609/2613 5SM SHRA BR OVC012
     FM261500 14010KT P6SM VCTS BKN025CB OVC080
      TEMPO 2615/2619 4SM TSRA BR OVC018CB
     FM261900 12012KT P6SM -SHRA SCT030 OVC100
      TEMPO 2619/2623 3SM TSRA BR OVC030CB
     FM262300 11014KT P6SM SCT040 BKN120=

USA.gov is the U.S. government's official web portal to all federal, state and local government web resources and services.